createdAt,value
2022-12-01T00:02:07.778Z,2.10
2022-12-01T00:04:34.678Z,2.20
2022-12-01T00:07:01.495Z,2.20
2022-12-01T00:09:47.094Z,2.10
2022-12-01T00:12:14.284Z,2.20
2022-12-01T00:14:41.110Z,2.20
2022-12-01T00:17:08.021Z,2.20
2022-12-01T00:19:34.961Z,2.10
2022-12-01T00:22:02.058Z,2.10
2022-12-01T00:24:29.060Z,2.10
2022-12-01T00:26:55.886Z,2.10
2022-12-01T00:29:22.744Z,2.00
2022-12-01T00:31:49.689Z,2.10
2022-12-01T00:34:24.103Z,2.10
2022-12-01T00:36:51.063Z,2.10
2022-12-01T00:39:17.869Z,2.20
2022-12-01T00:41:44.654Z,2.20
2022-12-01T00:44:11.542Z,2.20
2022-12-01T00:46:38.447Z,2.30
2022-12-01T00:49:06.423Z,2.30
2022-12-01T00:51:33.520Z,2.30
2022-12-01T00:54:00.372Z,2.30
2022-12-01T00:56:27.271Z,2.30
2022-12-01T00:58:54.094Z,2.30
2022-12-01T01:01:21.206Z,2.30
2022-12-01T01:03:48.153Z,2.30
2022-12-01T01:06:15.351Z,2.30
2022-12-01T01:08:42.545Z,2.30
2022-12-01T01:11:09.657Z,2.30
2022-12-01T01:13:36.498Z,2.30
2022-12-01T01:16:04.817Z,2.30
2022-12-01T01:18:31.864Z,2.30
2022-12-01T01:20:59.736Z,2.30
2022-12-01T01:23:26.798Z,2.30
2022-12-01T01:25:53.586Z,2.30
2022-12-01T01:28:20.397Z,2.30
2022-12-01T01:30:47.351Z,2.30
2022-12-01T01:33:14.301Z,2.30
2022-12-01T01:35:41.130Z,2.30
2022-12-01T01:38:07.989Z,2.30
2022-12-01T01:40:34.881Z,2.30
2022-12-01T01:43:02.027Z,2.40
2022-12-01T01:45:29.796Z,2.40
2022-12-01T01:47:59.456Z,2.40
2022-12-01T01:50:27.573Z,2.40
2022-12-01T01:53:08.016Z,2.50
2022-12-01T01:55:35.327Z,2.50
2022-12-01T01:58:03.037Z,2.60
2022-12-01T02:00:29.914Z,2.50
2022-12-01T02:02:57.541Z,2.60
2022-12-01T02:05:26.989Z,2.50
2022-12-01T02:07:55.438Z,2.60
2022-12-01T02:10:24.565Z,2.50
2022-12-01T02:12:54.163Z,2.50
2022-12-01T02:15:36.432Z,2.50
2022-12-01T02:18:09.315Z,2.50
2022-12-01T02:20:36.135Z,2.50
2022-12-01T02:23:02.944Z,2.50
2022-12-01T02:25:32.793Z,2.50
2022-12-01T02:28:10.789Z,2.50
2022-12-01T02:30:40.661Z,2.50
2022-12-01T02:33:10.240Z,2.50
2022-12-01T02:35:52.619Z,2.50
2022-12-01T02:38:29.408Z,2.50
2022-12-01T02:41:08.715Z,2.50
2022-12-01T02:43:42.624Z,2.50
2022-12-01T02:46:18.392Z,2.50
2022-12-01T02:48:47.508Z,2.40
2022-12-01T02:51:17.418Z,2.40
2022-12-01T02:53:44.981Z,2.50
2022-12-01T02:56:13.532Z,2.50
2022-12-01T02:58:40.392Z,2.70
2022-12-01T03:01:22.947Z,2.70
2022-12-01T03:04:09.350Z,2.80
2022-12-01T03:06:37.259Z,2.80
2022-12-01T03:09:24.984Z,2.80
2022-12-01T03:12:10.632Z,2.70
2022-12-01T03:14:37.411Z,2.70
2022-12-01T03:17:07.652Z,2.60
2022-12-01T03:19:40.403Z,2.70
2022-12-01T03:22:13.189Z,2.60
2022-12-01T03:24:42.658Z,2.60
2022-12-01T03:27:11.554Z,2.60
2022-12-01T03:29:41.497Z,2.50
2022-12-01T03:32:17.751Z,2.60
2022-12-01T03:34:54.138Z,2.60
2022-12-01T03:37:32.363Z,2.50
2022-12-01T03:40:01.062Z,2.60
2022-12-01T03:42:30.896Z,2.50
2022-12-01T03:44:59.986Z,2.60
2022-12-01T03:47:29.666Z,2.60
2022-12-01T03:49:56.753Z,2.60
2022-12-01T03:52:23.512Z,2.60
2022-12-01T03:54:52.357Z,2.60
2022-12-01T03:57:24.214Z,2.60
2022-12-01T03:59:51.415Z,2.50
2022-12-01T04:02:18.589Z,2.50
2022-12-01T04:04:45.397Z,2.50
2022-12-01T04:07:13.624Z,2.50
2022-12-01T04:09:41.858Z,2.50
2022-12-01T04:12:29.840Z,2.50
2022-12-01T04:15:00.848Z,2.50
2022-12-01T04:17:27.984Z,2.50
2022-12-01T04:19:55.138Z,2.60
2022-12-01T04:22:22.244Z,2.60
2022-12-01T04:24:49.159Z,2.60
2022-12-01T04:27:16.066Z,2.60
2022-12-01T04:29:43.111Z,2.70
2022-12-01T04:32:09.985Z,2.70
2022-12-01T04:34:36.800Z,2.80
2022-12-01T04:37:04.437Z,2.80
2022-12-01T04:39:31.302Z,2.80
2022-12-01T04:41:58.052Z,2.80
2022-12-01T04:44:27.771Z,2.80
2022-12-01T04:46:57.217Z,2.80
2022-12-01T04:49:24.047Z,2.80
2022-12-01T04:51:50.848Z,2.80
2022-12-01T04:54:18.189Z,2.80
2022-12-01T04:56:45.091Z,2.80
2022-12-01T04:59:12.052Z,2.80
2022-12-01T05:01:39.277Z,2.80
2022-12-01T05:04:06.244Z,2.80
2022-12-01T05:06:33.219Z,2.80
2022-12-01T05:09:00.745Z,2.80
2022-12-01T05:11:28.715Z,2.90
2022-12-01T05:13:55.569Z,2.90
2022-12-01T05:16:24.303Z,2.90
2022-12-01T05:19:12.995Z,2.90
2022-12-01T05:21:40.503Z,2.90
2022-12-01T05:24:07.607Z,2.90
2022-12-01T05:26:34.523Z,2.90
2022-12-01T05:29:01.479Z,2.90
2022-12-01T05:31:28.313Z,2.90
2022-12-01T05:33:55.213Z,2.90
2022-12-01T05:36:22.287Z,3.00
2022-12-01T05:38:49.090Z,3.00
2022-12-01T05:41:16.148Z,3.00
2022-12-01T05:43:43.013Z,3.00
2022-12-01T05:46:10.049Z,3.00
2022-12-01T05:48:37.069Z,3.00
2022-12-01T05:51:13.980Z,3.00
2022-12-01T05:53:40.868Z,3.00
2022-12-01T05:56:08.174Z,3.10
2022-12-01T05:58:35.442Z,3.10
2022-12-01T06:01:02.643Z,3.10
2022-12-01T06:03:29.454Z,3.10
2022-12-01T06:05:56.523Z,3.10
2022-12-01T06:08:23.531Z,3.10
2022-12-01T06:10:50.394Z,3.10
2022-12-01T06:13:17.290Z,3.10
2022-12-01T06:15:44.282Z,3.10
2022-12-01T06:18:11.215Z,3.20
2022-12-01T06:20:38.057Z,3.20
2022-12-01T06:23:04.922Z,3.20
2022-12-01T06:25:31.716Z,3.10
2022-12-01T06:27:58.953Z,3.20
2022-12-01T06:30:26.190Z,3.20
2022-12-01T06:32:53.075Z,3.20
2022-12-01T06:35:20.026Z,3.20
2022-12-01T06:37:46.817Z,3.20
2022-12-01T06:40:13.874Z,3.10
2022-12-01T06:42:40.894Z,3.10
2022-12-01T06:45:07.969Z,3.10
2022-12-01T06:47:35.193Z,3.20
2022-12-01T06:50:02.447Z,3.20
2022-12-01T06:52:29.255Z,3.20
2022-12-01T06:54:56.246Z,3.20
2022-12-01T06:57:23.204Z,3.20
2022-12-01T06:59:50.632Z,3.20
2022-12-01T07:02:18.142Z,3.20
2022-12-01T07:04:44.960Z,3.20
2022-12-01T07:07:12.403Z,3.20
2022-12-01T07:09:39.394Z,3.20
2022-12-01T07:12:06.379Z,3.20
2022-12-01T07:14:33.487Z,3.20
2022-12-01T07:17:00.467Z,3.20
2022-12-01T07:19:27.304Z,3.10
2022-12-01T07:21:54.099Z,3.10
2022-12-01T07:24:20.938Z,3.20
2022-12-01T07:26:48.345Z,3.20
2022-12-01T07:29:15.455Z,3.20
2022-12-01T07:31:42.330Z,3.20
2022-12-01T07:34:11.069Z,3.20
2022-12-01T07:36:37.895Z,3.20
2022-12-01T07:39:05.638Z,3.20
2022-12-01T07:41:32.748Z,3.20
2022-12-01T07:43:59.614Z,3.30
2022-12-01T07:46:27.269Z,3.30
2022-12-01T07:48:54.882Z,3.30
2022-12-01T07:51:22.263Z,3.30
2022-12-01T07:53:49.882Z,3.30
2022-12-01T07:56:17.262Z,3.40
2022-12-01T07:58:44.192Z,3.30
2022-12-01T08:01:14.296Z,3.40
2022-12-01T08:03:41.639Z,3.50
2022-12-01T08:06:08.965Z,3.40
2022-12-01T08:08:37.069Z,3.50
2022-12-01T08:11:05.875Z,3.50
2022-12-01T08:13:32.846Z,3.50
2022-12-01T08:15:59.699Z,3.50
2022-12-01T08:18:26.697Z,3.60
2022-12-01T08:20:56.464Z,3.60
2022-12-01T08:23:23.357Z,3.60
2022-12-01T08:25:52.472Z,3.60
2022-12-01T08:28:19.901Z,3.60
2022-12-01T08:30:46.952Z,3.60
2022-12-01T08:33:14.082Z,3.60
2022-12-01T08:35:41.036Z,3.60
2022-12-01T08:38:07.979Z,3.60
2022-12-01T08:40:34.841Z,3.60
2022-12-01T08:43:01.843Z,3.70
2022-12-01T08:45:28.767Z,3.70
2022-12-01T08:47:59.066Z,3.60
2022-12-01T08:50:27.067Z,3.70
2022-12-01T08:52:54.228Z,3.70
2022-12-01T08:55:22.071Z,3.70
2022-12-01T08:57:48.865Z,3.70
2022-12-01T09:00:16.059Z,3.70
2022-12-01T09:02:43.088Z,3.80
2022-12-01T09:05:10.145Z,3.80
2022-12-01T09:07:37.005Z,3.80
2022-12-01T09:10:04.466Z,3.80
2022-12-01T09:12:31.381Z,3.80
2022-12-01T09:14:58.194Z,3.80
2022-12-01T09:17:24.999Z,3.90
2022-12-01T09:19:52.309Z,3.90
2022-12-01T09:22:19.402Z,3.90
2022-12-01T09:24:46.156Z,3.90
2022-12-01T09:27:13.317Z,3.90
2022-12-01T09:29:40.150Z,3.90
2022-12-01T09:32:07.109Z,3.80
2022-12-01T09:34:33.861Z,3.80
2022-12-01T09:37:01.022Z,3.90
2022-12-01T09:39:28.443Z,3.90
2022-12-01T09:41:58.061Z,3.90
2022-12-01T09:44:31.035Z,3.90
2022-12-01T09:47:00.867Z,3.90
2022-12-01T09:49:33.979Z,3.90
2022-12-01T09:52:00.911Z,3.90
2022-12-01T09:54:28.750Z,3.80
2022-12-01T09:56:56.332Z,3.80
2022-12-01T09:59:25.320Z,3.80
2022-12-01T10:01:56.337Z,3.80
2022-12-01T10:04:23.159Z,3.70
2022-12-01T10:06:58.258Z,3.70
2022-12-01T10:09:34.748Z,3.80
2022-12-01T10:12:06.480Z,3.80
2022-12-01T10:14:35.889Z,3.80
2022-12-01T10:17:14.264Z,3.90
2022-12-01T10:19:52.249Z,3.90
2022-12-01T10:22:22.239Z,3.90
2022-12-01T10:24:52.028Z,3.90
2022-12-01T10:27:38.794Z,3.90
2022-12-01T10:30:08.982Z,3.90
2022-12-01T10:32:52.322Z,3.90
2022-12-01T10:35:23.715Z,4.00
2022-12-01T10:37:58.849Z,4.00
2022-12-01T10:40:27.106Z,4.00
2022-12-01T10:42:54.491Z,4.00
2022-12-01T10:45:25.965Z,4.00
2022-12-01T10:48:11.337Z,4.00
2022-12-01T10:50:38.252Z,4.00
2022-12-01T10:53:05.355Z,4.00
2022-12-01T10:55:36.541Z,4.00
2022-12-01T10:58:09.440Z,4.00
2022-12-01T11:03:27.671Z,4.00
2022-12-01T11:05:58.872Z,4.00
2022-12-01T11:08:32.262Z,4.00
2022-12-01T11:10:59.285Z,4.00
2022-12-01T11:13:30.750Z,4.00
2022-12-01T11:15:58.657Z,4.00
2022-12-01T11:18:31.628Z,4.10
2022-12-01T11:21:26.285Z,4.10
2022-12-01T11:23:54.136Z,4.10
2022-12-01T11:26:29.893Z,4.10
2022-12-01T11:28:59.888Z,4.00
2022-12-01T11:31:43.977Z,4.00
2022-12-01T11:34:22.021Z,4.00
2022-12-01T11:36:50.180Z,4.00
2022-12-01T11:39:27.954Z,4.00
2022-12-01T11:41:55.786Z,3.90
2022-12-01T11:44:43.522Z,3.90
2022-12-01T11:47:25.428Z,3.90
2022-12-01T11:49:56.712Z,3.80
2022-12-01T11:52:31.904Z,3.90
2022-12-01T11:55:11.288Z,3.80
2022-12-01T11:57:41.064Z,3.80
2022-12-01T12:00:18.536Z,3.80
2022-12-01T12:02:51.511Z,3.70
2022-12-01T12:05:36.815Z,3.70
2022-12-01T12:08:05.824Z,3.70
2022-12-01T12:10:47.863Z,3.70
2022-12-01T12:13:33.574Z,3.70
2022-12-01T12:16:03.489Z,3.70
2022-12-01T12:18:33.322Z,3.70
2022-12-01T12:21:00.235Z,3.70
2022-12-01T12:23:39.254Z,3.60
2022-12-01T12:26:12.082Z,3.60
2022-12-01T12:28:41.666Z,3.60
2022-12-01T12:31:28.505Z,3.50
2022-12-01T12:34:05.666Z,3.50
2022-12-01T12:36:38.685Z,3.50
2022-12-01T12:39:24.794Z,3.50
2022-12-01T12:41:55.994Z,3.50
2022-12-01T12:44:37.051Z,3.50
2022-12-01T12:47:10.810Z,3.50
2022-12-01T12:49:43.441Z,3.50
2022-12-01T12:52:16.554Z,3.60
2022-12-01T12:54:49.205Z,3.60
2022-12-01T12:57:28.479Z,3.60
2022-12-01T12:59:58.464Z,3.60
2022-12-01T13:02:27.056Z,3.50
2022-12-01T13:04:58.133Z,3.50
2022-12-01T13:07:30.471Z,3.50
2022-12-01T13:10:00.953Z,3.40
2022-12-01T13:12:29.686Z,3.40
2022-12-01T13:15:03.569Z,3.40
2022-12-01T13:17:35.790Z,3.50
2022-12-01T13:20:03.686Z,3.40
2022-12-01T13:22:32.317Z,3.40
2022-12-01T13:24:59.348Z,3.50
2022-12-01T13:27:28.077Z,3.50
2022-12-01T13:29:56.222Z,3.60
2022-12-01T13:32:43.205Z,3.60
2022-12-01T13:35:19.271Z,3.50
2022-12-01T13:37:46.165Z,3.50
2022-12-01T13:40:23.934Z,3.50
2022-12-01T13:42:59.759Z,3.50
2022-12-01T13:45:29.597Z,3.50
2022-12-01T13:47:57.049Z,3.40
2022-12-01T13:50:36.126Z,3.40
2022-12-01T13:53:14.554Z,3.40
2022-12-01T13:56:10.862Z,3.40
2022-12-01T13:58:42.969Z,3.40
2022-12-01T14:01:41.994Z,3.40
2022-12-01T14:04:11.862Z,3.40
2022-12-01T14:06:46.644Z,3.40
2022-12-01T14:09:32.038Z,3.50
2022-12-01T14:12:01.702Z,3.50
2022-12-01T14:14:33.163Z,3.40
2022-12-01T14:17:02.722Z,3.40
2022-12-01T14:19:46.977Z,3.40
2022-12-01T14:22:31.753Z,3.50
2022-12-01T14:24:58.843Z,3.50
2022-12-01T14:27:37.625Z,3.50
2022-12-01T14:30:36.188Z,3.50
2022-12-01T14:33:21.639Z,3.50
2022-12-01T14:35:48.474Z,3.50
2022-12-01T14:38:15.951Z,3.50
2022-12-01T14:40:44.016Z,3.50
2022-12-01T14:43:30.606Z,3.50
2022-12-01T14:46:07.984Z,3.50
2022-12-01T14:48:37.790Z,3.50
2022-12-01T14:51:34.073Z,3.60
2022-12-01T14:54:02.536Z,3.60
2022-12-01T14:56:30.375Z,3.60
2022-12-01T14:58:58.328Z,3.60
2022-12-01T15:01:30.132Z,3.50
2022-12-01T15:03:57.918Z,3.50
2022-12-01T15:06:26.146Z,3.50
2022-12-01T15:09:33.051Z,3.50
2022-12-01T15:11:59.335Z,3.50
2022-12-01T15:14:31.010Z,3.40
2022-12-01T15:16:58.269Z,3.50
2022-12-01T15:19:31.747Z,3.50
2022-12-01T15:21:59.253Z,3.50
2022-12-01T15:24:27.848Z,3.50
2022-12-01T15:27:02.162Z,3.50
2022-12-01T15:29:36.266Z,3.50
2022-12-01T15:32:06.128Z,3.50
2022-12-01T15:34:35.715Z,3.50
2022-12-01T15:37:08.565Z,3.50
2022-12-01T15:39:36.929Z,3.60
2022-12-01T15:42:04.411Z,3.60
2022-12-01T15:44:35.261Z,3.60
2022-12-01T15:47:22.509Z,3.60
2022-12-01T15:49:50.117Z,3.60
2022-12-01T15:52:16.933Z,3.60
2022-12-01T15:54:47.325Z,3.70
2022-12-01T15:57:19.195Z,3.70
2022-12-01T15:59:47.753Z,3.70
2022-12-01T16:02:20.408Z,3.80
2022-12-01T16:04:48.949Z,3.80
2022-12-01T16:07:16.074Z,3.80
2022-12-01T16:09:56.488Z,3.90
2022-12-01T16:12:25.008Z,3.90
2022-12-01T16:14:52.192Z,3.80
2022-12-01T16:17:19.315Z,3.80
2022-12-01T16:19:46.123Z,3.70
2022-12-01T16:22:18.277Z,3.70
2022-12-01T16:24:50.094Z,3.70
2022-12-01T16:27:23.393Z,3.70
2022-12-01T16:29:54.550Z,3.70
2022-12-01T16:32:23.756Z,3.60
2022-12-01T16:34:51.799Z,3.60
2022-12-01T16:37:18.812Z,3.50
2022-12-01T16:39:45.780Z,3.50
2022-12-01T16:42:16.903Z,3.40
2022-12-01T16:44:45.697Z,3.40
2022-12-01T16:47:25.470Z,3.40
2022-12-01T16:49:52.506Z,3.40
2022-12-01T16:52:43.740Z,3.40
2022-12-01T16:55:26.754Z,3.40
2022-12-01T16:57:53.693Z,3.40
2022-12-01T17:00:20.730Z,3.40
2022-12-01T17:02:47.741Z,3.40
2022-12-01T17:05:14.564Z,3.40
2022-12-01T17:07:41.386Z,3.40
2022-12-01T17:10:08.463Z,3.40
2022-12-01T17:12:35.381Z,3.40
2022-12-01T17:15:02.643Z,3.40
2022-12-01T17:17:29.880Z,3.40
2022-12-01T17:19:56.643Z,3.50
2022-12-01T17:22:23.566Z,3.50
2022-12-01T17:24:50.863Z,3.40
2022-12-01T17:27:18.088Z,3.40
2022-12-01T17:29:46.460Z,3.40
2022-12-01T17:32:13.869Z,3.40
2022-12-01T17:34:40.706Z,3.40
2022-12-01T17:37:07.860Z,3.40
2022-12-01T17:39:34.696Z,3.50
2022-12-01T17:42:01.565Z,3.40
2022-12-01T17:44:28.601Z,3.40
2022-12-01T17:46:55.694Z,3.40
2022-12-01T17:49:22.645Z,3.40
2022-12-01T17:51:49.551Z,3.40
2022-12-01T17:54:16.410Z,3.40
2022-12-01T17:56:43.330Z,3.40
2022-12-01T17:59:10.356Z,3.40
2022-12-01T18:01:37.640Z,3.30
2022-12-01T18:04:04.771Z,3.30
2022-12-01T18:06:31.628Z,3.30
2022-12-01T18:08:59.877Z,3.30
2022-12-01T18:11:27.710Z,3.30
2022-12-01T18:13:54.805Z,3.30
2022-12-01T18:16:25.734Z,3.30
2022-12-01T18:18:53.050Z,3.30
2022-12-01T18:21:21.155Z,3.30
2022-12-01T18:23:58.720Z,3.40
2022-12-01T18:26:26.158Z,3.40
2022-12-01T18:28:53.939Z,3.40
2022-12-01T18:31:21.090Z,3.40
2022-12-01T18:33:48.138Z,3.40
2022-12-01T18:36:16.185Z,3.50
2022-12-01T18:38:43.083Z,3.40
2022-12-01T18:41:09.946Z,3.40
2022-12-01T18:43:36.835Z,3.40
2022-12-01T18:46:04.350Z,3.30
2022-12-01T18:48:31.266Z,3.30
2022-12-01T18:51:01.960Z,3.20
2022-12-01T18:53:28.846Z,3.30
2022-12-01T18:55:55.619Z,3.30
2022-12-01T18:58:22.458Z,3.30
2022-12-01T19:00:49.342Z,3.40
2022-12-01T19:03:16.257Z,3.30
2022-12-01T19:05:43.759Z,3.30
2022-12-01T19:08:10.705Z,3.20
2022-12-01T19:10:37.594Z,3.30
2022-12-01T19:13:04.493Z,3.30
2022-12-01T19:15:31.377Z,3.30
2022-12-01T19:17:58.217Z,3.30
2022-12-01T19:20:25.093Z,3.30
2022-12-01T19:22:52.212Z,3.20
2022-12-01T19:25:19.088Z,3.20
2022-12-01T19:27:46.016Z,3.30
2022-12-01T19:30:13.012Z,3.30
2022-12-01T19:32:40.284Z,3.20
2022-12-01T19:35:07.250Z,3.20
2022-12-01T19:37:34.115Z,3.20
2022-12-01T19:40:01.119Z,3.20
2022-12-01T19:42:27.953Z,3.10
2022-12-01T19:44:55.861Z,3.20
2022-12-01T19:47:22.855Z,3.10
2022-12-01T19:49:49.854Z,3.20
2022-12-01T19:52:16.734Z,3.20
2022-12-01T19:54:43.611Z,3.20
2022-12-01T19:57:10.515Z,3.10
2022-12-01T19:59:37.429Z,3.20
2022-12-01T20:02:04.273Z,3.20
2022-12-01T20:04:31.409Z,3.20
2022-12-01T20:06:58.189Z,3.20
2022-12-01T20:09:24.973Z,3.20
2022-12-01T20:11:53.288Z,3.20
2022-12-01T20:14:20.180Z,3.20
2022-12-01T20:16:47.050Z,3.20
2022-12-01T20:19:13.907Z,3.20
2022-12-01T20:21:43.253Z,3.20
2022-12-01T20:24:14.144Z,3.20
2022-12-01T20:26:42.712Z,3.20
2022-12-01T20:29:20.578Z,3.20
2022-12-01T20:31:48.503Z,3.20
2022-12-01T20:34:17.549Z,3.20
2022-12-01T20:36:44.539Z,3.20
2022-12-01T20:39:12.289Z,3.20
2022-12-01T20:41:39.929Z,3.10
2022-12-01T20:44:07.940Z,3.20
2022-12-01T20:46:35.757Z,3.20
2022-12-01T20:49:02.663Z,3.10
2022-12-01T20:51:33.307Z,3.20
2022-12-01T20:56:51.550Z,3.10
2022-12-01T20:59:18.342Z,3.10
2022-12-01T21:01:45.330Z,3.10
2022-12-01T21:04:12.191Z,3.10
2022-12-01T21:06:39.072Z,3.10
2022-12-01T21:09:07.588Z,3.10
2022-12-01T21:11:54.993Z,3.10
2022-12-01T21:14:27.989Z,3.10
2022-12-01T21:16:57.141Z,3.00
2022-12-01T21:19:31.581Z,3.00
2022-12-01T21:21:58.863Z,3.00
2022-12-01T21:24:33.545Z,3.00
2022-12-01T21:27:06.116Z,2.90
2022-12-01T21:29:35.864Z,2.90
2022-12-01T21:32:10.123Z,2.90
2022-12-01T21:34:37.018Z,2.90
2022-12-01T21:37:07.535Z,2.80
2022-12-01T21:39:34.631Z,2.80
2022-12-01T21:42:07.073Z,2.80
2022-12-01T21:44:36.937Z,2.80
2022-12-01T21:47:12.492Z,2.90
2022-12-01T21:49:39.818Z,2.80
2022-12-01T21:52:09.831Z,2.80
2022-12-01T21:54:36.610Z,2.80
2022-12-01T21:57:13.698Z,2.80
2022-12-01T21:59:40.472Z,2.80
2022-12-01T22:02:22.921Z,2.70
2022-12-01T22:04:50.280Z,2.70
2022-12-01T22:07:17.397Z,2.80
2022-12-01T22:09:44.173Z,2.70
2022-12-01T22:12:26.004Z,2.70
2022-12-01T22:14:53.762Z,2.70
2022-12-01T22:17:21.059Z,2.70
2022-12-01T22:20:15.056Z,2.60
2022-12-01T22:22:41.959Z,2.60
2022-12-01T22:25:11.944Z,2.60
2022-12-01T22:27:39.360Z,2.60
2022-12-01T22:30:06.171Z,2.60
2022-12-01T22:32:45.540Z,2.60
2022-12-01T22:35:26.387Z,2.60
2022-12-01T22:37:59.187Z,2.60
2022-12-01T22:40:28.966Z,2.50
2022-12-01T22:42:55.829Z,2.50
2022-12-01T22:45:24.339Z,2.50
2022-12-01T22:47:52.041Z,2.50
2022-12-01T22:50:27.541Z,2.50
2022-12-01T22:52:55.810Z,2.50
2022-12-01T22:55:22.669Z,2.50
2022-12-01T22:57:49.616Z,2.50
2022-12-01T23:00:18.172Z,2.50
2022-12-01T23:02:47.618Z,2.50
2022-12-01T23:05:16.751Z,2.50
2022-12-01T23:07:43.770Z,2.50
2022-12-01T23:10:13.740Z,2.50
2022-12-01T23:12:41.219Z,2.50
2022-12-01T23:15:23.296Z,2.60
2022-12-01T23:17:50.856Z,2.50
2022-12-01T23:20:20.730Z,2.50
2022-12-01T23:22:47.925Z,2.50
2022-12-01T23:25:18.776Z,2.50
2022-12-01T23:27:46.908Z,2.50
2022-12-01T23:30:14.368Z,2.50
2022-12-01T23:32:41.367Z,2.50
2022-12-01T23:35:13.434Z,2.50
2022-12-01T23:37:41.427Z,2.40
2022-12-01T23:40:20.042Z,2.40
2022-12-01T23:42:47.161Z,2.40
2022-12-01T23:45:25.662Z,2.40
2022-12-01T23:47:54.656Z,2.40
2022-12-01T23:50:30.592Z,2.40
2022-12-01T23:52:57.637Z,2.40
2022-12-01T23:55:28.857Z,2.40
2022-12-01T23:57:58.816Z,2.40
